Time;durP1;ratioP1;P1;durP2;ratioP2;P2;SDS_P1;SDS_P2;PMS_P1;PMS_P2;Temp;Humidity;BMP_temperature;BMP_pressure;BME280_temperature;BME280_humidity;BME280_pressure;Samples;Min_cycle;Max_cycle;Signal;HPM_P1;HPM_P2
2023/03/06 00:00:13;;;;;;;11.30;4.10;;;3.60;98.00;;;;;;5031571;28;20465;-65
2023/03/06 00:02:40;;;;;;;4.67;3.23;;;3.60;98.00;;;;;;5031273;28;20460;-65
2023/03/06 00:05:08;;;;;;;5.57;3.00;;;3.50;98.00;;;;;;5031482;28;20461;-65
2023/03/06 00:07:37;;;;;;;6.97;3.73;;;3.40;98.00;;;;;;5030090;28;20466;-65
2023/03/06 00:10:05;;;;;;;6.27;3.23;;;3.30;98.00;;;;;;5031255;28;20462;-68
2023/03/06 00:12:32;;;;;;;5.57;4.20;;;3.20;98.00;;;;;;5030187;28;20461;-67
2023/03/06 00:14:59;;;;;;;8.50;3.53;;;3.10;98.00;;;;;;5031372;28;20664;-67
2023/03/06 00:17:27;;;;;;;7.00;3.57;;;3.10;98.00;;;;;;5031554;28;20457;-67
2023/03/06 00:19:55;;;;;;;7.53;3.73;;;3.20;98.00;;;;;;5031461;28;20461;-67
2023/03/06 00:22:23;;;;;;;5.67;3.33;;;3.20;98.00;;;;;;5031238;28;20457;-67
2023/03/06 00:24:53;;;;;;;9.60;4.00;;;3.30;98.00;;;;;;5031122;28;20461;-67
2023/03/06 00:27:21;;;;;;;11.23;3.90;;;3.30;98.00;;;;;;5031477;28;20462;-67
2023/03/06 00:29:48;;;;;;;5.47;3.20;;;3.40;98.00;;;;;;5030953;28;20457;-67
2023/03/06 00:32:17;;;;;;;7.87;3.70;;;3.40;98.00;;;;;;5031306;28;20456;-67
2023/03/06 00:34:44;;;;;;;11.20;4.67;;;3.40;98.00;;;;;;5029626;28;20483;-67
2023/03/06 00:37:11;;;;;;;5.93;3.40;;;3.50;98.00;;;;;;5031209;28;20461;-67
2023/03/06 00:39:38;;;;;;;3.57;2.90;;;3.60;98.00;;;;;;5031102;28;20468;-67
2023/03/06 00:42:07;;;;;;;5.90;3.53;;;3.70;98.00;;;;;;5030038;28;20458;-67
2023/03/06 00:44:34;;;;;;;5.43;3.67;;;3.70;98.00;;;;;;5031016;28;20469;-67
2023/03/06 00:47:01;;;;;;;7.80;4.30;;;3.50;98.00;;;;;;5030984;28;20484;-67
2023/03/06 00:49:28;;;;;;;5.50;3.10;;;3.40;98.00;;;;;;5031093;28;20470;-67
2023/03/06 00:51:56;;;;;;;7.17;3.50;;;3.20;98.00;;;;;;5032963;28;21008;-67
2023/03/06 00:54:23;;;;;;;5.30;3.40;;;3.20;98.00;;;;;;5034961;28;20462;-67
2023/03/06 00:56:50;;;;;;;6.17;3.53;;;3.40;98.00;;;;;;5035025;28;20515;-67
2023/03/06 00:59:18;;;;;;;5.17;3.47;;;3.50;98.00;;;;;;5034837;28;20457;-67
2023/03/06 01:01:45;;;;;;;5.27;3.73;;;3.60;98.00;;;;;;5034757;28;20469;-67
2023/03/06 01:04:13;;;;;;;13.53;3.90;;;3.60;98.00;;;;;;5034533;28;20460;-67
2023/03/06 01:06:41;;;;;;;8.67;3.27;;;3.50;98.00;;;;;;5034513;28;20464;-67
2023/03/06 01:09:08;;;;;;;7.27;4.00;;;3.50;98.00;;;;;;5033613;28;20467;-67
2023/03/06 01:11:39;;;;;;;8.60;3.60;;;3.50;98.00;;;;;;5033565;28;20470;-67
2023/03/06 01:14:06;;;;;;;5.37;3.50;;;3.60;98.00;;;;;;5033590;28;20468;-67
2023/03/06 01:16:34;;;;;;;6.00;3.40;;;3.60;98.00;;;;;;5034488;28;20539;-67
2023/03/06 01:19:01;;;;;;;6.50;3.60;;;3.60;98.00;;;;;;5034666;28;20456;-67
2023/03/06 01:21:28;;;;;;;5.20;2.60;;;3.50;98.00;;;;;;5034287;28;20460;-67
2023/03/06 01:23:55;;;;;;;4.03;3.40;;;3.50;98.00;;;;;;5033155;28;20794;-67
2023/03/06 01:26:23;;;;;;;7.20;3.77;;;3.40;98.00;;;;;;5034126;28;20524;-67
2023/03/06 01:28:50;;;;;;;7.00;2.90;;;3.50;98.00;;;;;;5033001;28;20465;-67
2023/03/06 01:31:17;;;;;;;7.03;3.73;;;3.50;98.00;;;;;;5034228;28;20478;-67
2023/03/06 01:33:49;;;;;;;4.93;3.13;;;3.50;98.00;;;;;;5033884;28;20462;-67
2023/03/06 01:36:17;;;;;;;5.87;2.80;;;3.60;98.00;;;;;;5034491;28;20490;-67
2023/03/06 01:38:44;;;;;;;6.67;3.53;;;3.70;98.00;;;;;;5033873;28;20460;-67
2023/03/06 01:41:14;;;;;;;9.80;4.30;;;3.80;98.00;;;;;;5033942;28;20460;-67
2023/03/06 01:43:43;;;;;;;4.80;2.43;;;3.60;98.00;;;;;;5034180;28;20510;-67
2023/03/06 01:46:32;;;;;;;3.53;3.00;;;3.50;98.00;;;;;;5033904;28;20551;-67
2023/03/06 01:49:04;;;;;;;10.23;3.47;;;3.40;98.00;;;;;;5033857;28;20982;-67
2023/03/06 01:51:35;;;;;;;6.60;4.03;;;3.30;98.00;;;;;;5033722;28;20478;-67
2023/03/06 01:54:07;;;;;;;8.10;3.60;;;3.20;98.00;;;;;;5033838;28;20468;-67
2023/03/06 01:56:35;;;;;;;7.50;3.73;;;3.10;98.00;;;;;;5033534;28;20554;-67
2023/03/06 01:59:03;;;;;;;10.20;4.50;;;2.90;98.00;;;;;;5032581;28;20508;-67
2023/03/06 02:01:30;;;;;;;9.47;3.97;;;2.90;98.00;;;;;;5033072;28;20848;-67
2023/03/06 02:03:59;;;;;;;7.90;3.80;;;2.80;98.00;;;;;;5032900;28;20471;-67
2023/03/06 02:06:27;;;;;;;12.67;5.40;;;2.80;98.00;;;;;;5033517;28;20469;-67
2023/03/06 02:08:56;;;;;;;8.23;4.53;;;2.70;98.00;;;;;;5033832;28;20801;-67
2023/03/06 02:11:25;;;;;;;6.90;4.23;;;2.70;98.00;;;;;;5033577;28;20477;-67
2023/03/06 02:13:53;;;;;;;13.57;3.53;;;2.80;98.00;;;;;;5033729;28;20961;-67
2023/03/06 02:16:24;;;;;;;9.80;5.07;;;2.90;98.00;;;;;;5033616;28;20533;-67
2023/03/06 02:18:52;;;;;;;9.57;4.97;;;2.90;98.00;;;;;;5033341;28;20461;-67
2023/03/06 02:21:23;;;;;;;10.20;4.73;;;2.90;98.00;;;;;;5032503;28;20466;-67
2023/03/06 02:24:01;;;;;;;4.80;3.20;;;2.90;98.00;;;;;;5033377;28;20463;-67
2023/03/06 02:26:31;;;;;;;4.10;2.83;;;2.80;98.00;;;;;;5033283;28;20455;-67
2023/03/06 02:28:58;;;;;;;9.10;4.10;;;2.70;98.00;;;;;;5033082;28;20523;-67
2023/03/06 02:31:28;;;;;;;4.70;3.00;;;2.80;98.00;;;;;;5033155;28;20526;-67
2023/03/06 02:34:07;;;;;;;4.63;3.23;;;2.80;98.00;;;;;;5032971;28;20824;-67
2023/03/06 02:36:41;;;;;;;6.30;4.17;;;2.70;98.00;;;;;;5032909;28;21080;-67
2023/03/06 02:39:08;;;;;;;4.93;3.30;;;2.70;98.00;;;;;;5033074;28;20553;-67
2023/03/06 02:41:42;;;;;;;5.07;3.23;;;2.70;98.00;;;;;;5032985;28;20463;-67
2023/03/06 02:44:09;;;;;;;3.97;3.13;;;2.70;98.00;;;;;;5032831;28;20464;-67
2023/03/06 02:46:36;;;;;;;5.97;3.47;;;2.70;98.00;;;;;;5033022;28;20589;-67
2023/03/06 02:49:03;;;;;;;8.30;3.80;;;2.80;98.00;;;;;;5032631;28;20464;-67
2023/03/06 02:51:30;;;;;;;6.67;3.30;;;2.90;98.00;;;;;;5031454;28;20867;-67
2023/03/06 02:53:57;;;;;;;5.03;3.30;;;3.00;98.00;;;;;;5031610;28;20461;-67
2023/03/06 02:56:24;;;;;;;6.00;3.80;;;2.90;98.00;;;;;;5032402;28;20534;-67
2023/03/06 02:58:53;;;;;;;6.37;3.93;;;2.90;98.00;;;;;;5032646;28;20460;-67
2023/03/06 03:01:20;;;;;;;11.90;3.80;;;2.80;98.00;;;;;;5032488;28;20462;-67
2023/03/06 03:03:47;;;;;;;4.00;3.10;;;2.90;98.00;;;;;;5031192;28;20456;-67
2023/03/06 03:06:16;;;;;;;5.30;3.57;;;2.90;98.00;;;;;;5032536;28;20460;-67
2023/03/06 03:08:43;;;;;;;6.70;3.40;;;2.80;98.00;;;;;;5032672;28;21384;-67
2023/03/06 03:11:11;;;;;;;3.80;2.67;;;2.90;98.00;;;;;;5032495;28;20514;-67
2023/03/06 03:13:38;;;;;;;7.87;3.60;;;3.10;98.00;;;;;;5030734;28;20458;-67
2023/03/06 03:16:09;;;;;;;7.87;3.27;;;3.30;98.00;;;;;;5032100;28;20491;-67
2023/03/06 03:18:36;;;;;;;4.90;3.33;;;3.40;98.00;;;;;;5032065;28;20460;-67
2023/03/06 03:21:07;;;;;;;5.80;4.20;;;3.30;98.00;;;;;;5032160;28;20785;-67
2023/03/06 03:23:34;;;;;;;10.93;3.90;;;3.30;98.00;;;;;;5032008;28;20810;-67
2023/03/06 03:26:07;;;;;;;7.97;4.47;;;3.30;98.00;;;;;;5032189;28;20460;-67
2023/03/06 03:28:35;;;;;;;13.30;3.27;;;3.20;98.00;;;;;;5032051;28;20489;-67
2023/03/06 03:31:04;;;;;;;4.77;3.07;;;3.20;98.00;;;;;;5014394;28;20978;-67
2023/03/06 03:33:33;;;;;;;7.90;3.80;;;3.10;98.00;;;;;;5031743;28;20456;-68
2023/03/06 03:36:01;;;;;;;5.37;3.37;;;3.20;98.00;;;;;;5031466;28;21021;-67
2023/03/06 03:38:33;;;;;;;5.63;3.50;;;3.00;98.00;;;;;;5030663;28;20460;-67
2023/03/06 03:41:01;;;;;;;5.40;3.00;;;2.90;98.00;;;;;;5031917;28;20531;-67
2023/03/06 03:43:28;;;;;;;7.70;3.77;;;2.90;98.00;;;;;;5031621;28;20454;-67
2023/03/06 03:45:55;;;;;;;6.03;3.87;;;2.80;98.00;;;;;;5031949;28;20463;-67
2023/03/06 03:48:22;;;;;;;6.30;3.00;;;2.90;98.00;;;;;;5031982;28;20453;-67
2023/03/06 03:50:50;;;;;;;5.23;3.40;;;2.90;98.00;;;;;;5031803;28;20644;-67
2023/03/06 03:53:17;;;;;;;7.73;3.70;;;2.90;98.00;;;;;;5031578;28;20962;-67
2023/03/06 03:55:46;;;;;;;4.30;3.10;;;2.90;98.00;;;;;;5031725;28;20488;-66
2023/03/06 03:58:13;;;;;;;4.23;2.73;;;3.00;98.00;;;;;;5031682;28;20456;-67
2023/03/06 04:00:40;;;;;;;12.63;3.93;;;3.00;98.00;;;;;;5031668;28;20825;-67
2023/03/06 04:03:07;;;;;;;9.27;4.17;;;2.90;98.00;;;;;;5031818;28;20469;-67
2023/03/06 04:05:34;;;;;;;5.13;3.37;;;2.90;98.00;;;;;;5031396;28;20460;-67
2023/03/06 04:08:04;;;;;;;5.67;3.57;;;3.00;98.00;;;;;;5031507;28;20454;-67
2023/03/06 04:10:33;;;;;;;4.37;2.67;;;3.00;98.00;;;;;;5031560;28;20555;-67
2023/03/06 04:13:00;;;;;;;12.20;4.83;;;3.20;98.00;;;;;;5031330;28;20523;-67
2023/03/06 04:15:27;;;;;;;5.50;3.37;;;3.10;98.00;;;;;;5031690;28;21021;-67
2023/03/06 04:17:58;;;;;;;5.87;3.10;;;3.00;98.00;;;;;;5031581;28;20525;-66
2023/03/06 04:20:25;;;;;;;9.40;4.30;;;3.00;98.00;;;;;;5029920;28;20457;-67
2023/03/06 04:22:52;;;;;;;5.70;3.70;;;2.90;98.00;;;;;;5031515;28;20561;-67
2023/03/06 04:25:20;;;;;;;3.00;1.97;;;2.80;98.00;;;;;;5030413;28;20462;-66
2023/03/06 04:27:47;;;;;;;4.83;3.20;;;2.60;98.00;;;;;;5029933;28;20467;-67
2023/03/06 04:30:16;;;;;;;8.70;4.27;;;2.60;98.00;;;;;;5031158;28;20991;-67
2023/03/06 04:32:43;;;;;;;6.53;3.60;;;2.50;98.00;;;;;;5031088;28;20500;-67
2023/03/06 04:35:10;;;;;;;4.43;3.40;;;2.50;98.00;;;;;;5030926;28;20457;-67
2023/03/06 04:37:38;;;;;;;6.73;3.47;;;2.50;98.00;;;;;;5031115;28;20484;-67
2023/03/06 04:40:06;;;;;;;7.63;4.47;;;2.40;98.00;;;;;;5030890;28;20507;-67
2023/03/06 04:42:34;;;;;;;6.13;3.17;;;2.40;98.00;;;;;;5031078;28;20974;-67
2023/03/06 04:45:01;;;;;;;6.70;3.40;;;2.40;98.00;;;;;;5030914;28;20482;-66
2023/03/06 04:47:28;;;;;;;5.90;3.10;;;2.40;98.00;;;;;;5030977;28;20450;-67
2023/03/06 04:49:55;;;;;;;7.90;2.80;;;2.40;98.00;;;;;;5031024;28;20458;-67
2023/03/06 04:52:22;;;;;;;9.63;3.13;;;2.50;98.00;;;;;;5031015;28;20453;-67
2023/03/06 04:54:49;;;;;;;10.47;4.80;;;2.40;98.00;;;;;;5030211;28;21074;-66
2023/03/06 04:57:19;;;;;;;5.03;4.00;;;2.50;98.00;;;;;;5030845;28;20487;-67
2023/03/06 04:59:48;;;;;;;9.80;3.30;;;2.80;98.00;;;;;;5030722;28;20832;-67
2023/03/06 05:02:15;;;;;;;9.90;4.07;;;2.90;98.00;;;;;;5030908;28;20459;-67
2023/03/06 05:04:42;;;;;;;10.70;2.43;;;2.90;98.00;;;;;;5031165;28;20464;-67
2023/03/06 05:07:09;;;;;;;6.27;3.50;;;2.80;98.00;;;;;;5031041;28;20505;-67
2023/03/06 05:09:36;;;;;;;5.27;3.03;;;2.80;98.00;;;;;;5030874;28;20891;-67
2023/03/06 05:12:04;;;;;;;6.50;3.57;;;2.90;98.00;;;;;;5031001;28;20545;-67
2023/03/06 05:14:31;;;;;;;6.00;3.57;;;2.90;98.00;;;;;;5030690;28;20953;-67
2023/03/06 05:17:00;;;;;;;6.47;3.50;;;2.90;98.00;;;;;;5030610;28;21001;-67
2023/03/06 05:19:27;;;;;;;7.27;2.93;;;2.90;98.00;;;;;;5030665;28;20464;-67
2023/03/06 05:21:54;;;;;;;6.93;3.70;;;2.80;98.00;;;;;;5030816;28;20464;-67
2023/03/06 05:24:21;;;;;;;5.40;3.53;;;2.70;98.00;;;;;;5030574;28;20459;-67
2023/03/06 05:26:48;;;;;;;6.63;4.17;;;2.60;98.00;;;;;;5030506;28;20464;-67
2023/03/06 05:29:15;;;;;;;6.33;3.83;;;2.60;98.00;;;;;;5030444;28;20472;-67
2023/03/06 05:31:42;;;;;;;17.50;4.43;;;2.70;98.00;;;;;;5029325;28;20534;-67
2023/03/06 05:34:13;;;;;;;8.10;4.03;;;2.70;98.00;;;;;;5029371;28;20502;-67
2023/03/06 05:36:41;;;;;;;6.63;3.43;;;2.70;98.00;;;;;;5031472;28;20545;-67
2023/03/06 05:39:08;;;;;;;8.03;4.13;;;2.80;98.00;;;;;;5033006;28;20456;-67
2023/03/06 05:41:35;;;;;;;7.07;3.53;;;2.80;98.00;;;;;;5034103;28;20467;-67
2023/03/06 05:44:03;;;;;;;3.57;2.90;;;2.90;98.00;;;;;;5033961;28;20518;-67
2023/03/06 05:46:30;;;;;;;8.20;3.50;;;2.80;98.00;;;;;;5033973;28;20548;-67
2023/03/06 05:48:57;;;;;;;6.80;3.67;;;2.70;98.00;;;;;;5033983;28;20483;-67
2023/03/06 05:51:25;;;;;;;3.93;2.63;;;2.70;98.00;;;;;;5033854;28;20867;-67
2023/03/06 05:53:52;;;;;;;8.10;3.80;;;2.70;98.00;;;;;;5034169;28;21015;-67
2023/03/06 05:56:20;;;;;;;3.87;2.80;;;2.70;98.00;;;;;;5033792;28;20658;-67
2023/03/06 05:58:49;;;;;;;5.20;3.43;;;2.60;98.00;;;;;;5033883;28;20456;-67
2023/03/06 06:01:19;;;;;;;5.27;3.13;;;2.70;98.00;;;;;;5032464;28;20463;-67
2023/03/06 06:03:46;;;;;;;10.40;3.53;;;2.70;98.00;;;;;;5033624;28;20882;-67
2023/03/06 06:06:14;;;;;;;8.20;4.20;;;2.70;98.00;;;;;;5033843;28;20950;-67
2023/03/06 06:08:43;;;;;;;7.57;3.53;;;2.70;98.00;;;;;;5033559;28;20699;-66
2023/03/06 06:11:11;;;;;;;5.03;2.90;;;2.90;98.00;;;;;;5033644;28;20491;-67
2023/03/06 06:13:39;;;;;;;5.43;2.50;;;2.80;98.00;;;;;;5033437;28;20547;-67
2023/03/06 06:16:08;;;;;;;5.63;3.90;;;2.80;98.00;;;;;;5033440;28;20958;-67
2023/03/06 06:18:35;;;;;;;4.07;3.33;;;2.80;98.00;;;;;;5033059;28;20455;-67
2023/03/06 06:21:05;;;;;;;7.10;3.50;;;2.80;98.00;;;;;;5033183;28;20455;-67
2023/03/06 06:23:33;;;;;;;6.73;4.27;;;2.80;98.00;;;;;;5033291;28;20491;-67
2023/03/06 06:26:02;;;;;;;6.57;3.90;;;2.80;98.00;;;;;;5032124;28;20461;-67
2023/03/06 06:28:30;;;;;;;10.40;4.50;;;2.90;98.00;;;;;;5032893;28;20487;-67
2023/03/06 06:30:57;;;;;;;3.73;3.00;;;3.00;98.00;;;;;;5033047;28;20466;-67
2023/03/06 06:33:24;;;;;;;6.50;3.30;;;3.10;98.00;;;;;;5033040;28;20457;-67
2023/03/06 06:35:53;;;;;;;10.43;3.57;;;3.00;98.00;;;;;;5032847;28;20463;-67
2023/03/06 06:38:20;;;;;;;4.70;3.17;;;3.00;98.00;;;;;;5033074;28;20485;-67
2023/03/06 06:40:47;;;;;;;7.57;3.50;;;2.90;98.00;;;;;;5031624;28;20456;-67
2023/03/06 06:43:17;;;;;;;10.37;3.97;;;2.70;98.00;;;;;;5032834;28;20463;-67
2023/03/06 06:45:45;;;;;;;8.07;3.60;;;2.60;98.00;;;;;;5032716;28;20455;-67
2023/03/06 06:48:12;;;;;;;5.00;3.30;;;2.80;98.00;;;;;;5031935;28;20463;-66
2023/03/06 06:50:39;;;;;;;4.67;3.70;;;3.00;98.00;;;;;;5031500;28;20462;-66
2023/03/06 06:53:06;;;;;;;12.17;4.03;;;3.30;98.00;;;;;;5032740;28;20457;-66
2023/03/06 06:55:41;;;;;;;6.57;3.97;;;3.30;98.00;;;;;;5032810;28;20465;-66
2023/03/06 06:58:08;;;;;;;4.50;3.40;;;3.20;98.00;;;;;;5032530;28;20511;-66
2023/03/06 07:00:37;;;;;;;6.13;3.60;;;3.20;98.00;;;;;;5032515;28;20522;-66
2023/03/06 07:03:04;;;;;;;29.47;4.57;;;3.10;98.00;;;;;;5032671;28;20463;-64
2023/03/06 07:05:31;;;;;;;4.43;2.70;;;3.10;98.00;;;;;;5032864;28;20465;-63
2023/03/06 07:07:58;;;;;;;6.40;3.80;;;3.10;98.00;;;;;;5032924;28;20962;-63
2023/03/06 07:10:25;;;;;;;7.07;3.80;;;3.20;98.00;;;;;;5032462;28;20477;-63
2023/03/06 07:12:53;;;;;;;13.40;4.73;;;3.20;98.00;;;;;;5032455;28;20489;-63
2023/03/06 07:15:20;;;;;;;10.50;4.53;;;3.20;98.00;;;;;;5050239;28;20548;-63
2023/03/06 07:17:56;;;;;;;5.63;3.40;;;3.40;98.00;;;;;;5052184;28;20499;-63
2023/03/06 07:20:23;;;;;;;8.17;4.57;;;3.20;98.00;;;;;;5052010;28;20450;-63
2023/03/06 07:22:50;;;;;;;5.70;3.10;;;3.20;98.00;;;;;;5052154;28;20465;-63
2023/03/06 07:25:18;;;;;;;4.63;3.43;;;3.20;98.00;;;;;;5052099;28;20656;-63
2023/03/06 07:27:45;;;;;;;6.30;3.40;;;3.30;98.00;;;;;;5051689;28;20488;-63
2023/03/06 07:30:14;;;;;;;7.10;3.70;;;3.60;98.00;;;;;;5051865;28;20513;-63
2023/03/06 07:32:41;;;;;;;10.23;4.50;;;3.80;98.00;;;;;;5052083;28;20856;-64
2023/03/06 07:35:19;;;;;;;7.13;4.07;;;3.80;98.00;;;;;;5052147;28;20468;-64
2023/03/06 07:37:46;;;;;;;8.27;4.53;;;3.90;98.00;;;;;;5051851;28;20578;-63
2023/03/06 07:40:14;;;;;;;9.20;5.30;;;4.10;98.00;;;;;;5051813;28;20496;-63
2023/03/06 07:42:41;;;;;;;6.13;3.90;;;4.10;98.00;;;;;;5051505;28;20484;-64
2023/03/06 07:45:09;;;;;;;4.70;3.40;;;4.20;98.00;;;;;;5051983;28;20852;-63
2023/03/06 07:47:36;;;;;;;8.07;4.20;;;4.20;98.00;;;;;;5051706;28;20450;-63
2023/03/06 07:50:06;;;;;;;3.83;2.80;;;4.20;98.00;;;;;;5051532;28;20961;-63
2023/03/06 07:52:35;;;;;;;7.80;3.77;;;4.20;98.00;;;;;;5051495;28;20475;-63
2023/03/06 07:55:02;;;;;;;8.70;3.80;;;4.30;98.00;;;;;;5051376;28;20457;-64
2023/03/06 07:57:29;;;;;;;6.80;3.70;;;4.20;98.00;;;;;;5051520;28;20496;-63
2023/03/06 07:59:56;;;;;;;7.30;3.90;;;4.30;98.00;;;;;;5033796;28;20457;-64
2023/03/06 08:02:26;;;;;;;8.43;4.70;;;4.20;98.00;;;;;;5051711;28;20459;-64
2023/03/06 08:04:53;;;;;;;5.87;3.40;;;4.10;98.00;;;;;;5051406;28;20803;-63
2023/03/06 08:07:21;;;;;;;6.23;3.17;;;4.00;98.00;;;;;;5051558;28;20531;-63
2023/03/06 08:09:49;;;;;;;5.63;4.00;;;4.00;98.00;;;;;;5051402;28;20611;-63
2023/03/06 08:12:16;;;;;;;8.97;3.70;;;3.90;98.00;;;;;;5051245;28;20479;-63
2023/03/06 08:14:43;;;;;;;5.30;3.43;;;4.10;98.00;;;;;;5051195;28;20476;-64
2023/03/06 08:17:12;;;;;;;9.13;4.47;;;4.20;98.00;;;;;;5033197;28;20534;-63
2023/03/06 08:19:39;;;;;;;5.37;3.50;;;4.20;98.00;;;;;;5050991;28;20460;-63
2023/03/06 08:22:06;;;;;;;8.93;3.90;;;4.40;98.00;;;;;;5051067;28;20865;-63
2023/03/06 08:24:34;;;;;;;4.50;3.10;;;4.40;98.00;;;;;;5033389;28;20462;-63
2023/03/06 08:27:03;;;;;;;8.87;4.07;;;4.60;98.00;;;;;;5051228;28;20452;-63
2023/03/06 08:29:30;;;;;;;8.27;4.37;;;4.70;98.00;;;;;;5050993;28;20472;-64
2023/03/06 08:31:58;;;;;;;8.60;4.00;;;4.70;98.00;;;;;;5050863;28;20457;-63
2023/03/06 08:34:26;;;;;;;5.50;3.83;;;4.70;98.00;;;;;;5044329;28;20477;-63
2023/03/06 08:36:53;;;;;;;5.73;3.53;;;4.70;98.00;;;;;;5045235;28;20505;-63
2023/03/06 08:39:22;;;;;;;4.80;3.20;;;4.80;98.00;;;;;;5050787;28;20946;-63
2023/03/06 08:41:49;;;;;;;8.33;3.67;;;4.80;98.00;;;;;;5050611;28;20496;-63
2023/03/06 08:44:18;;;;;;;7.10;3.10;;;4.90;98.00;;;;;;5050610;28;20465;-64
2023/03/06 08:46:45;;;;;;;9.10;3.30;;;4.80;98.00;;;;;;5030845;28;20854;-62
2023/03/06 08:49:13;;;;;;;5.40;2.90;;;4.70;98.00;;;;;;5030855;28;20512;-61
2023/03/06 08:51:41;;;;;;;4.93;2.47;;;4.70;98.00;;;;;;5030785;28;20485;-62
2023/03/06 08:54:09;;;;;;;7.07;3.20;;;4.70;98.00;;;;;;5031075;28;20456;-63
2023/03/06 08:56:36;;;;;;;3.67;3.00;;;4.60;98.00;;;;;;5030602;28;20464;-61
2023/03/06 08:59:07;;;;;;;4.73;3.03;;;4.70;98.00;;;;;;5029848;28;20500;-63
2023/03/06 09:01:37;;;;;;;4.13;2.80;;;4.80;98.00;;;;;;5030965;28;20967;-63
2023/03/06 09:04:06;;;;;;;6.37;3.13;;;4.90;98.00;;;;;;5030886;28;20456;-63
2023/03/06 09:06:36;;;;;;;4.13;2.37;;;4.90;98.00;;;;;;5030684;28;20526;-63
2023/03/06 09:09:04;;;;;;;3.73;2.50;;;5.10;98.00;;;;;;5030808;28;20875;-63
2023/03/06 09:11:32;;;;;;;5.13;2.23;;;5.10;98.00;;;;;;5030830;28;20475;-63
2023/03/06 09:13:59;;;;;;;6.67;2.73;;;5.20;98.00;;;;;;5032585;28;20464;-63
2023/03/06 09:16:26;;;;;;;7.80;2.70;;;5.20;98.00;;;;;;5034497;28;20970;-63
2023/03/06 09:18:56;;;;;;;9.03;3.30;;;5.30;98.00;;;;;;5033397;28;20878;-64
2023/03/06 09:21:27;;;;;;;3.47;2.23;;;5.50;98.00;;;;;;5034350;28;20512;-63
2023/03/06 09:23:54;;;;;;;5.90;2.90;;;5.70;98.00;;;;;;5033116;28;20472;-63
2023/03/06 09:26:23;;;;;;;3.93;2.70;;;6.00;98.00;;;;;;5034205;28;20461;-63
2023/03/06 09:28:50;;;;;;;4.40;2.27;;;6.20;98.00;;;;;;5034209;28;20949;-63
2023/03/06 09:31:27;;;;;;;4.93;2.77;;;6.20;98.00;;;;;;5034085;28;21035;-63
2023/03/06 09:33:55;;;;;;;3.00;2.40;;;6.30;98.00;;;;;;5034355;28;20464;-63
2023/03/06 09:36:23;;;;;;;3.63;2.27;;;6.30;98.00;;;;;;5033796;28;20470;-63
2023/03/06 09:38:50;;;;;;;2.20;1.90;;;6.00;98.00;;;;;;5033686;28;20492;-63
2023/03/06 09:41:33;;;;;;;5.30;2.40;;;6.00;98.00;;;;;;5033631;28;20467;-63
2023/03/06 09:44:04;;;;;;;3.47;2.37;;;5.80;98.00;;;;;;5032642;28;20458;-64
2023/03/06 09:46:58;;;;;;;3.50;1.80;;;5.80;98.00;;;;;;5049917;28;20540;-63
2023/03/06 09:49:45;;;;;;;2.23;1.67;;;5.90;98.00;;;;;;5018562;28;20464;-63
2023/03/06 09:52:30;;;;;;;3.00;2.10;;;5.80;98.00;;;;;;5053697;28;20517;-63
2023/03/06 09:55:02;;;;;;;2.60;2.17;;;5.70;98.00;;;;;;5053195;28;20463;-63
2023/03/06 09:57:34;;;;;;;2.67;2.10;;;5.80;98.00;;;;;;5053575;28;21030;-63
2023/03/06 10:00:05;;;;;;;2.40;1.93;;;5.80;98.00;;;;;;5053547;28;20524;-63
2023/03/06 10:02:38;;;;;;;2.40;1.80;;;5.70;98.00;;;;;;5053173;28;20961;-63
2023/03/06 10:05:13;;;;;;;3.90;2.87;;;5.60;98.00;;;;;;5053465;28;20949;-63
2023/03/06 10:07:46;;;;;;;2.27;1.80;;;5.60;98.00;;;;;;5041597;28;21017;-63
2023/03/06 10:10:19;;;;;;;3.67;2.40;;;5.70;98.00;;;;;;5033627;28;20843;-64
2023/03/06 10:12:55;;;;;;;2.80;2.10;;;5.70;98.00;;;;;;5033457;28;20977;-64
2023/03/06 10:15:27;;;;;;;3.13;1.80;;;5.70;98.00;;;;;;5033119;28;20976;-63
2023/03/06 10:17:55;;;;;;;2.70;1.93;;;5.80;98.00;;;;;;5033190;28;21007;-63
2023/03/06 10:20:26;;;;;;;2.67;2.20;;;6.00;98.00;;;;;;5039656;28;20470;-63
2023/03/06 10:23:25;;;;;;;2.33;1.90;;;6.00;98.00;;;;;;5052016;28;20465;-63
2023/03/06 10:26:00;;;;;;;2.40;1.70;;;5.90;98.00;;;;;;5046219;28;20459;-63
2023/03/06 10:28:30;;;;;;;1.87;1.63;;;5.80;98.00;;;;;;5052990;28;20538;-63
2023/03/06 10:31:02;;;;;;;9.23;1.90;;;5.80;98.00;;;;;;5052853;28;20462;-63
2023/03/06 10:33:42;;;;;;;3.80;1.90;;;5.90;98.00;;;;;;5033174;28;20858;-63
2023/03/06 10:36:14;;;;;;;5.10;2.03;;;5.90;98.00;;;;;;5032991;28;20457;-63
2023/03/06 10:38:43;;;;;;;2.10;1.73;;;5.80;98.00;;;;;;5032987;28;20909;-63
2023/03/06 10:41:23;;;;;;;5.00;2.13;;;5.90;98.00;;;;;;5032895;28;20468;-63
2023/03/06 10:44:25;;;;;;;1.67;1.63;;;6.00;98.00;;;;;;5033190;28;20468;-63
2023/03/06 10:46:54;;;;;;;8.53;1.90;;;6.20;98.00;;;;;;5034079;28;20468;-63
2023/03/06 10:49:34;;;;;;;2.80;2.17;;;6.40;98.00;;;;;;5053029;28;20860;-63
2023/03/06 10:52:05;;;;;;;3.07;2.37;;;6.40;98.00;;;;;;5053548;28;20501;-63
2023/03/06 10:54:34;;;;;;;2.97;2.27;;;6.40;98.00;;;;;;5053355;28;20477;-63
2023/03/06 10:57:20;;;;;;;2.40;2.20;;;6.50;98.00;;;;;;5053194;28;20457;-63
2023/03/06 10:59:53;;;;;;;2.70;2.07;;;6.60;98.00;;;;;;5052237;28;20491;-63
2023/03/06 11:02:29;;;;;;;1.73;1.60;;;6.70;98.00;;;;;;5052474;28;20547;-63
2023/03/06 11:04:59;;;;;;;2.37;2.10;;;6.70;98.00;;;;;;5052474;28;20464;-63
2023/03/06 11:07:28;;;;;;;2.47;1.80;;;6.80;98.00;;;;;;5051904;28;20792;-63
2023/03/06 11:10:02;;;;;;;2.20;1.73;;;6.80;98.00;;;;;;5051609;28;20471;-64
2023/03/06 11:12:32;;;;;;;3.20;1.90;;;6.80;98.00;;;;;;5051868;28;20460;-64
2023/03/06 11:15:20;;;;;;;2.30;1.60;;;6.80;98.00;;;;;;5052003;28;20496;-63
2023/03/06 11:17:59;;;;;;;3.43;1.90;;;6.70;98.00;;;;;;5049631;28;20963;-63
2023/03/06 11:20:29;;;;;;;2.60;1.53;;;6.70;98.00;;;;;;5012523;28;20476;-63
2023/03/06 11:23:03;;;;;;;3.50;2.13;;;6.80;98.00;;;;;;5012524;28;21007;-63
2023/03/06 11:25:33;;;;;;;2.93;1.93;;;6.60;98.00;;;;;;5012156;28;20505;-63
2023/03/06 11:28:04;;;;;;;2.03;1.57;;;6.40;98.00;;;;;;5012675;28;20460;-63
2023/03/06 11:30:39;;;;;;;3.07;1.70;;;6.30;98.00;;;;;;5012176;28;20469;-63
2023/03/06 11:33:22;;;;;;;4.80;1.97;;;6.10;98.00;;;;;;5012316;28;20457;-63
2023/03/06 11:35:56;;;;;;;1.80;1.43;;;6.20;98.00;;;;;;5011997;28;20461;-63
2023/03/06 11:38:35;;;;;;;3.87;2.17;;;6.30;98.00;;;;;;5012054;28;20487;-63
2023/03/06 11:41:08;;;;;;;7.00;2.53;;;6.40;98.00;;;;;;4994658;28;20593;-63
2023/03/06 11:43:41;;;;;;;1.73;1.63;;;6.50;98.00;;;;;;5012389;28;20884;-63
2023/03/06 11:46:18;;;;;;;4.40;2.40;;;6.60;98.00;;;;;;5012045;28;20455;-63
2023/03/06 11:48:54;;;;;;;4.47;2.20;;;6.60;98.00;;;;;;5012110;28;20523;-63
2023/03/06 11:51:24;;;;;;;3.57;2.20;;;6.70;98.00;;;;;;4995406;28;20523;-63
2023/03/06 11:53:54;;;;;;;7.90;2.67;;;6.80;98.00;;;;;;5012373;28;20543;-63
2023/03/06 11:56:36;;;;;;;3.37;1.93;;;6.90;98.00;;;;;;5012205;28;20462;-63
2023/03/06 11:59:18;;;;;;;2.87;1.77;;;6.90;98.00;;;;;;5012090;28;20493;-63
2023/03/06 12:01:51;;;;;;;3.37;1.93;;;6.90;98.00;;;;;;5011804;28;21164;-63
2023/03/06 12:04:48;;;;;;;3.73;2.13;;;7.00;98.00;;;;;;5011505;28;20880;-63
2023/03/06 12:07:30;;;;;;;3.70;2.43;;;7.00;98.00;;;;;;5011865;28;20459;-63
2023/03/06 12:10:11;;;;;;;5.87;1.97;;;7.20;98.00;;;;;;5011372;28;20482;-63
2023/03/06 12:13:04;;;;;;;2.37;1.67;;;7.10;98.00;;;;;;5011648;28;20998;-63
2023/03/06 12:15:47;;;;;;;4.00;2.27;;;7.20;98.00;;;;;;5011335;28;20466;-63
2023/03/06 12:18:29;;;;;;;2.30;2.10;;;7.20;98.00;;;;;;5011586;28;20498;-63
2023/03/06 12:21:04;;;;;;;2.87;2.00;;;7.20;98.00;;;;;;5011428;28;20478;-63
2023/03/06 12:24:02;;;;;;;2.50;1.80;;;7.10;98.00;;;;;;5011744;28;20462;-63
2023/03/06 12:26:43;;;;;;;2.73;1.97;;;7.00;98.00;;;;;;5011432;28;20473;-63
2023/03/06 12:29:33;;;;;;;2.17;1.77;;;7.00;98.00;;;;;;5011616;28;20869;-63
2023/03/06 12:32:15;;;;;;;4.17;2.20;;;7.00;98.00;;;;;;5011278;28;20466;-63
2023/03/06 12:35:00;;;;;;;2.80;1.97;;;7.10;98.00;;;;;;5011359;28;20600;-63
2023/03/06 12:37:37;;;;;;;3.33;1.93;;;7.00;98.00;;;;;;5011474;28;20865;-63
2023/03/06 12:40:35;;;;;;;2.80;1.80;;;7.00;98.00;;;;;;5011298;28;20497;-63
2023/03/06 12:43:43;;;;;;;2.80;2.10;;;7.10;98.00;;;;;;5004648;28;20471;-63
2023/03/06 12:46:13;;;;;;;4.20;2.77;;;7.20;98.00;;;;;;5011573;28;20455;-63
2023/03/06 12:48:45;;;;;;;3.27;2.00;;;7.20;98.00;;;;;;5015253;28;20868;-63
2023/03/06 12:51:16;;;;;;;3.60;1.97;;;7.30;98.00;;;;;;5015459;28;20492;-63
2023/03/06 12:53:45;;;;;;;2.50;2.03;;;7.40;98.00;;;;;;5015603;28;21027;-63
2023/03/06 12:56:18;;;;;;;4.07;2.23;;;7.30;98.00;;;;;;5015399;28;20461;-63
2023/03/06 12:58:54;;;;;;;5.13;2.50;;;7.30;98.00;;;;;;5015489;28;20481;-63
2023/03/06 13:01:57;;;;;;;3.30;2.07;;;7.20;98.00;;;;;;5015169;28;20488;-63
2023/03/06 13:04:48;;;;;;;2.40;2.27;;;7.20;98.00;;;;;;4954149;28;20457;-63
2023/03/06 13:07:36;;;;;;;2.90;1.93;;;7.20;98.00;;;;;;5029348;28;20461;-62
2023/03/06 13:10:20;;;;;;;5.40;2.23;;;7.20;98.00;;;;;;5045267;28;20519;-61
2023/03/06 13:12:54;;;;;;;4.30;2.53;;;7.10;98.00;;;;;;5050578;28;20454;-62